Tiempo atmosférico en la estación meteorológica de A Pobra de Trives, Ourense (840 m.)



Fecha
DESCASC
Temp. máxima en grados centígrados (hora)
DESCASC
Temp. mínima en grados centígrados (hora)
DESCASC
Temp. media en grados centígrados
DESCASC
Racha de viento máxima en m/sg (hora)
DESCASC
Velocidad máxima media en intervalos de 10 minutos(hora)
DESCASC
Precipitaciones diarias en mm
DESCASC
Precipitaciones de 00:00 a 06:00 en mm
DESCASC
Precipitaciones de 06:00 a 12:00 en mm
DESCASC
Precipitaciones de 12:00 a 18:00 en mm
DESCASC
Precipitaciones de 18:00 a 24:00 en mm
DESCASC
06-12-2018 14.9 (12:50) 3 (23:30) 8.9 6.39 (16:00) 3.33 (08:20) 0 0 0 0 0
05-12-2018 13.5 (15:40) 4.8 (08:50) 9.2 8.33 (17:30) 3.89 (17:30) 0 0 0 0 0
04-12-2018 13.9 (15:10) 7.8 (23:30) 10.8 6.39 (14:20) 3.61 (12:50) 0 0 0 0 0
03-12-2018 15.9 (15:00) 9.2 (00:00) 12.5 8.06 (14:20) 3.33 (09:30) 1.6 0 0.2 1.2 0.2
02-12-2018 12.1 (15:50) 5.4 (00:00) 8.8 11.67 (15:40) 5.56 (15:40) 0 0 0 0 0
01-12-2018 11 (14:10) 3.7 (00:00) 7.4 8.33 (17:20) 4.17 (17:20) 0 0 0 0 0
30-11-2018 9.6 (14:50) 2.8 (00:00) 6.2 6.94 (13:30) 3.61 (14:10) 1.4 0.8 0.6 0 0
29-11-2018 7.6 (15:10) 3.8 (00:00) 5.7 9.17 (07:00) 5 (02:40) 2.8 0 1.2 1.6 0
28-11-2018 10.7 (14:40) 1.5 (00:00) 6.1 12.22 (23:30) 5.28 (23:40) 0 0 0 0 0
27-11-2018 8.5 (14:50) 1.1 (00:00) 4.8 5 (00:50) 2.78 (00:50) 0 0 0 0 0
26-11-2018 7.3 (16:00) 2.4 (23:40) 4.9 17.5 (05:10) 8.89 (05:10) 3.6 1.4 2.2 0 0
25-11-2018 8.7 (14:00) 0.8 (00:00) 4.7 18.89 (23:30) 8.89 (23:30) 8.4 2.6 0 0 5.8
24-11-2018 11.5 (14:50) 4.5 (00:00) 8 15 (19:50) 5 (15:10) 5.2 0.6 0.2 1 3.4
23-11-2018 9.8 (12:50) 1.4 (00:00) 5.6 11.11 (16:40) 4.72 (13:10) 4.2 3.4 0 0 0.8
22-11-2018 9.4 (14:40) 2.7 (00:00) 6 8.06 (15:00) 4.17 (11:40) 4.2 2.8 1.2 0.2 0
21-11-2018 9.4 (13:20) 3.4 (00:00) 6.4 6.67 (15:50) 3.33 (15:50) 6 2.4 2.4 1 0.2
20-11-2018 11.9 (14:20) 3.9 (00:00) 7.9 9.44 (13:40) 4.17 (13:40) 21.6 4.2 11.8 1.2 4.4
19-11-2018 12.9 (13:40) 7.3 (00:00) 10.1 6.11 (21:40) 3.06 (21:40) 8 2 0 0.4 5.6
18-11-2018 13.2 (12:20) 7.3 (00:00) 10.3 6.11 (10:20) 3.61 (10:20) 0.2 0 0 0 0.2
17-11-2018 14.9 (14:20) 7.4 (00:00) 11.1 11.39 (13:50) 5.83 (13:50) 0 0 0 0 0
16-11-2018 14.5 (14:20) 6 (00:00) 10.3 9.17 (19:50) 4.72 (23:40) 0 0 0 0 0
15-11-2018 15.5 (13:00) 7.2 (00:00) 11.3 5.83 (15:40) 3.33 (12:50) 0 0 0 0 0
14-11-2018 14.6 (15:10) 4.4 (00:00) 9.5 6.39 (15:00) 3.61 (15:00) 0 0 0 0 0
13-11-2018 10.1 (15:20) 0.8 (00:00) 5.5 5.83 (14:10) 3.33 (14:10) 0 0 0 0 0
12-11-2018 9.8 (15:30) 2.1 (00:00) 6 4.72 (05:50) 2.5 (21:40) 0 0 0 0 0
11-11-2018 10.8 (11:20) 4.8 (00:00) 7.8 15.83 (03:40) 6.11 (07:00) 1.4 0.6 0.2 0.2 0.4
10-11-2018 13 (11:40) 8 (00:00) 10.5 17.22 (05:30) 7.22 (13:00) 17.2 4.2 6.4 4.6 2
09-11-2018 12 (22:20) 2.7 (00:00) 7.4 14.72 (23:59) 6.11 (23:59) 3.8 0.2 0 1 2.6

Gráficas

Temp. máximas Temp. mínimas Temp. medias Precipitaciones Rachas de viento máximas Velocidades máximas media en intervalos de 10 minutos

Datos horarios

Fecha y hora oficial Temperatura (ºC) Velocidad del viento (km/h) Dirección del viento Racha (km/h) Dirección de racha Precipitación (mm) Presión (hPa) Tendencia (hPa) Humedad (%)
2018-12-08 23:00:00 9.1 4 Oeste 12 Oeste 0 934.7 0.5 77
2018-12-08 22:00:00 8.5 3 Noroeste 6 Sur 0 934.4 0.5 71
2018-12-08 21:00:00 8.3 2 Nordeste 14 Oeste 0 934.3 0.8 68
2018-12-08 20:00:00 8.2 9 Oeste 19 Oeste 0 934.2 1 52
2018-12-08 19:00:00 7.2 5 Oeste 6 Sudoeste 0 933.9 0.9 73
2018-12-08 18:00:00 8.2 4 Este 6 Este 0 933.5 0.8 69
2018-12-08 17:00:00 9.8 4 Sudeste 12 Noroeste 0 933.2 0 63
2018-12-08 16:00:00 11.1 5 Oeste 12 Noroeste 0 933 -0.8 58
2018-12-08 15:00:00 11.8 5 Este 8 Sudeste 0 932.7 -1.5 57
2018-12-08 14:00:00 10.9 3 Sudeste 10 Este 0 933.2 -1.1 61
2018-12-08 13:00:00 10 6 Sudeste 13 Sudeste 0 933.8 -0.4 64
2018-12-08 12:00:00 9.4 3 Este 8 Sudeste 0 934.2 0.2 69
2018-12-08 11:00:00 6.2 5 Sudeste 9 Sudeste 0 934.3 0.6 82
2018-12-08 10:00:00 3.8 6 Oeste 15 Noroeste 0 934.2 0.6 91
2018-12-08 09:00:00 2 7 Noroeste 9 Noroeste 0 934 1.1 91
2018-12-08 08:00:00 2.6 5 Noroeste 11 Noroeste 0 933.7 0.7 90
2018-12-08 07:00:00 2.8 6 Noroeste 14 Oeste 0 933.6 0.3 92
2018-12-08 06:00:00 2.9 8 Oeste 17 Oeste 0 932.9 -0.1 91
2018-12-08 05:00:00 3.4 7 Noroeste 17 Oeste 0 933 0.2 89
2018-12-08 04:00:00 4 6 Oeste 9 Oeste 0 933.3 0.4 87
2018-12-08 03:00:00 5.4 3 Oeste 13 Noroeste 0 933 0.3 90
2018-12-08 02:00:00 5.5 6 Oeste 13 Oeste 0 932.8 0.1 89
2018-12-08 01:00:00 6.2 10 Oeste 22 Noroeste 0 932.9 0.2 89
2018-12-08 00:00:00 7 10 Oeste 24 Noroeste 0 932.7 0.2 92
2018-12-07 23:00:00 7.6 8 Oeste 21 Oeste 0 932.7 0.7 92
2018-12-07 22:00:00 8 9 Oeste 18 Noroeste 0 932.7 0.9 91
2018-12-07 21:00:00 9.1 10 Oeste 27 Oeste 0 932.5 1.1 91
2018-12-07 20:00:00 9.5 11 Oeste 36 Oeste 0 932 1.1 90
2018-12-07 19:00:00 10 12 Oeste 31 Oeste 0 931.8 1 89
2018-12-07 18:00:00 10.1 12 Oeste 35 Oeste 0 931.4 0.8 91
2018-12-07 17:00:00 10.4 14 Oeste 33 Oeste 0 930.9 0 90
2018-12-07 16:00:00 10.5 12 Oeste 32 Oeste 0 930.8 -0.4 88
2018-12-07 15:00:00 11 13 Oeste 33 Oeste 0 930.6 -1 84
2018-12-07 14:00:00 10.9 14 Oeste 29 Oeste 0 930.9 -1.2 82
2018-12-07 13:00:00 11.6 13 Oeste 32 Oeste 0 931.2 -1 78
2018-12-07 12:00:00 12.6 16 Oeste 34 Sudoeste 0 931.6 -0.2 72
2018-12-07 11:00:00 9.5 9 Oeste 23 Oeste 0 932.1 0.6 85
2018-12-07 10:00:00 8.2 10 Oeste 27 Oeste 0 932.2 0.8 94
2018-12-07 09:00:00 6.6 14 Oeste 32 Oeste 0 931.8 1.2 95
2018-12-07 08:00:00 3.6 5 Oeste 17 Oeste 0 931.5 0.8 82
2018-12-07 07:00:00 4.5 10 Noroeste 18 Oeste 0 931.4 0.1 91
2018-12-07 06:00:00 3.7 10 Noroeste 15 Noroeste 0 930.6 -0.5 86
2018-12-07 05:00:00 4 6 Noroeste 10 Oeste 0 930.7 -0.7 79
2018-12-07 04:00:00 4.2 3 Sudoeste 13 Oeste 0 931.3 -0.6 79
2018-12-07 03:00:00 2.9 9 Noroeste 16 Noroeste 0 931.1 -1.2 81
2018-12-07 02:00:00 2.9 10 Noroeste 15 Noroeste 0 931.4 -1.2 77
2018-12-07 01:00:00 2.9 10 Noroeste 17 Noroeste 0 931.9 -0.8 78
2018-12-07 00:00:00 3.1 8 Noroeste 14 Noroeste 0 932.3 -0.5 78
2018-12-06 23:00:00 3.4 9 Noroeste 14 Oeste 0 932.6 -0.3 78
2018-12-06 22:00:00 5.1 7 Noroeste 18 Oeste 0 932.7 0.1 69
2018-12-06 21:00:00 5.1 5 Oeste 21 Oeste 0 932.8 0.4 72
2018-12-06 20:00:00 6.6 6 Oeste 19 Oeste 0 932.9 0.6 71
2018-12-06 19:00:00 7 8 Oeste 15 Noroeste 0 932.6 0.4 73
2018-12-06 18:00:00 9.1 8 Oeste 19 Oeste 0 932.4 0 69
2018-12-06 17:00:00 11.2 6 Noroeste 19 Oeste 0 932.3 -0.5 67
2018-12-06 16:00:00 12.6 10 Oeste 23 Noroeste 0 932.2 -1.2 62
2018-12-06 15:00:00 14.3 8 Noroeste 20 Noroeste 0 932.4 -1.4 52
2018-12-06 14:00:00 14.7 7 Noroeste 19 Noroeste 0 932.8 -0.9 46
2018-12-06 13:00:00 14.8 7 Noroeste 20 Noroeste 0 933.4 0 45
2018-12-06 12:00:00 13.4 4 Norte 8 Oeste 0 933.8 1.1 59
2018-12-06 11:00:00 11.1 3 Este 9 Sudoeste 0 933.7 1.3 75
2018-12-06 10:00:00 8.7 3 Sudoeste 9 Sudoeste 0 933.4 1.4 83
2018-12-06 09:00:00 6.5 5 Sudoeste 19 Oeste 0 932.7 0.6 90
2018-12-06 08:00:00 6.8 10 Oeste 18 Oeste 0 932.4 0.3 92
2018-12-06 07:00:00 7.3 7 Noroeste 14 Oeste 0 932 0.1 91
2018-12-06 06:00:00 8.5 6 Noroeste 11 Oeste 0 932.1 0.5 91
2018-12-06 05:00:00 9.3 6 Oeste 11 Oeste 0 932.1 0.6 91
2018-12-06 04:00:00 10 3 Norte 8 Nordeste 0 931.9 0.2 91
2018-12-06 03:00:00 10.6 2 Norte 13 Oeste 0 931.6 0 89
2018-12-06 02:00:00 11 7 Oeste 14 Oeste 0 931.5 0.1 90
2018-12-06 01:00:00 11.1 6 Oeste 18 Oeste 0 931.7 0.3 89
2018-12-06 00:00:00 11.3 6 Oeste 15 Oeste 0 931.6 0.8 88
2018-12-05 23:00:00 11.4 6 Oeste 22 Oeste 0 931.4 1.1 87
2018-12-05 22:00:00 11.3 5 Oeste 13 Oeste 0 931.4 1.6 86
2018-12-05 21:00:00 11.4 8 Oeste 22 Sudoeste 0 930.8 1.6 84
2018-12-05 20:00:00 11.5 9 Oeste 19 Oeste 0 930.3 1.5 83
2018-12-05 19:00:00 11.7 8 Noroeste 22 Oeste 0 929.8 1.2 83
2018-12-05 18:00:00 12 5 Oeste 30 Sudoeste 0 929.2 0.9 81
2018-12-05 17:00:00 12.9 10 Oeste 27 Oeste 0 928.8 0.3 78
2018-12-05 16:00:00 13.3 7 Oeste 26 Oeste 0 928.6 -0.2 77
2018-12-05 15:00:00 13.3 6 Sudoeste 20 Oeste 0 928.3 -1.3 75
2018-12-05 14:00:00 13.1 4 Nordeste 20 Este 0 928.5 -0.8 68
2018-12-05 13:00:00 12.2 9 Sudeste 15 Este 0 928.8 -0.3 74
2018-12-05 12:00:00 10.3 5 Noroeste 16 Norte 0 929.6 1.4 85
2018-12-05 11:00:00 7.6 7 Este 14 Sur 0 929.3 1.8 93
2018-12-05 10:00:00 6.7 3 Oeste 9 Noroeste 0 929.1 2.3 94
2018-12-05 09:00:00 5 2 Noroeste 10 Norte 0 928.2 1.5 95
2018-12-05 08:00:00 5 4 Oeste 10 Norte 0 927.5 1.5 95
2018-12-05 07:00:00 5.1 4 Noroeste 11 Noroeste 0 926.8 1 94
2018-12-05 06:00:00 5.3 6 Noroeste 15 Norte 0 926.7 1.1 94
2018-12-05 05:00:00 5.7 8 Noroeste 15 Noroeste 0 926 0.4 94
2018-12-05 04:00:00 6 5 Oeste 14 Noroeste 0 925.8 0 93
2018-12-05 03:00:00 6.3 6 Norte 15 Noroeste 0 925.6 -0.2 93
2018-12-05 02:00:00 6.8 8 Norte 14 Norte 0 925.6 -0.2 91
2018-12-05 01:00:00 7.6 6 Norte 15 Este 0 925.8 0.2 87
2018-12-05 00:00:00 8.1 6 Sudeste 17 Nordeste 0 925.8 0.2 84
2018-12-04 23:00:00 8.7 6 Este 19 Nordeste 0 925.8 0.3 81
2018-12-04 22:00:00 8.8 9 Este 19 Este 0 925.6 0.1 82
2018-12-04 21:00:00 9.2 10 Este 18 Este 0 925.6 0.2 82
2018-12-04 20:00:00 9.4 8 Este 15 Este 0 925.5 0.6 82
2018-12-04 19:00:00 9.8 7 Sudeste 19 Nordeste 0 925.5 0.5 85
2018-12-04 18:00:00 10.9 3 Norte 13 Nordeste 0 925.4 0.4 80
2018-12-04 17:00:00 12.5 6 Nordeste 16 Este 0 924.9 -0.6 78
2018-12-04 16:00:00 13.2 7 Este 17 Nordeste 0 925 -0.9 77
2018-12-04 15:00:00 13.8 9 Este 23 Este 0 925 -1.5 77
2018-12-04 14:00:00 13.7 10 Este 22 Nordeste 0 925.5 -1.4 76
2018-12-04 13:00:00 13.1 10 Este 22 Nordeste 0 925.9 -0.8 83
2018-12-04 12:00:00 11.5 9 Este 16 Este 0 926.5 0.3 91
2018-12-04 11:00:00 10 8 Este 13 Nordeste 0 926.9 0.9 96
2018-12-04 10:00:00 9.2 6 Este 11 Sudeste 0 926.7 0.8 96
2018-12-04 09:00:00 9 4 Sudeste 9 Sudeste 0 926.2 0.4 96
2018-12-04 08:00:00 9.2 5 Este 10 Este 0 926 0.1 96
2018-12-04 07:00:00 9.4 5 Este 11 Este 0 925.9 0 96
2018-12-04 06:00:00 9.2 4 Este 13 Este 0 925.8 -0.1 96
2018-12-04 05:00:00 9.3 4 Este 10 Nordeste 0 925.9 -0.4 96
2018-12-04 04:00:00 9.4 4 Este 12 Nordeste 0 925.9 -0.6 96
2018-12-04 03:00:00 9.6 5 Este 13 Este 0 925.9 -0.6 96
2018-12-04 02:00:00 9.5 4 Este 13 Nordeste 0 926.3 -0.6 96
2018-12-04 01:00:00 9.4 4 Norte 8 Noroeste 0 926.5 -0.3 96
2018-12-04 00:00:00 9.2 3 Noroeste 7 Norte 0 926.5 -0.3 95
2018-12-03 23:00:00 9.9 3 Noroeste 11 Noroeste 0 926.9 0.3 95
2018-12-03 22:00:00 10.8 5 Noroeste 8 Noroeste 0 926.8 0.4 95
2018-12-03 21:00:00 11.3 3 Noroeste 6 Norte 0 926.8 0.9 95
2018-12-03 20:00:00 11.4 3 Nordeste 7 Sur 0.2 926.6 0.6 94
2018-12-03 19:00:00 11.5 3 Nordeste 5 Norte 0 926.4 0.8 94
2018-12-03 18:00:00 11.8 4 Este 7 Este 0.2 925.9 0.5 93
2018-12-03 17:00:00 12.5 3 Este 13 Oeste 0.2 926 0.3 92
2018-12-03 16:00:00 14 8 Oeste 24 Oeste 0.6 925.6 -0.4 87
2018-12-03 15:00:00 15.9 8 Sudoeste 29 Sudoeste 0 925.4 -1 79
2018-12-03 14:00:00 14.2 9 Sudoeste 27 Sudoeste 0.2 925.7 0 84
2018-12-03 13:00:00 12.9 10 Sudoeste 23 Sudoeste 0 926 1 92
2018-12-03 12:00:00 11.4 6 Nordeste 14 Este 0.2 926.4 1.8 91
2018-12-03 11:00:00 11 6 Nordeste 18 Nordeste 0 925.7 1.3 90
2018-12-03 10:00:00 9.7 9 Sudeste 23 Sudeste 0 925 0.9 93
2018-12-03 09:00:00 9.6 5 Este 16 Este 0 924.6 0.2 92
2018-12-03 08:00:00 9.7 6 Este 26 Este 0 924.4 0 91
2018-12-03 07:00:00 10 5 Este 22 Sudeste 0 924.1 -1.1 90
2018-12-03 06:00:00 9.9 6 Sudeste 16 Norte 0 924.4 -0.9 91
2018-12-03 05:00:00 10.1 6 Este 14 Sudoeste 0 924.4 -1.1 90
2018-12-03 04:00:00 10 4 Oeste 13 Oeste 0 925.2 -0.4 91
2018-12-03 03:00:00 10.1 5 Nordeste 18 Nordeste 0 925.3 -0.3 89
2018-12-03 02:00:00 10.3 6 Este 16 Noroeste 0 925.5 -0.3 86
2018-12-03 01:00:00 10.5 4 Noroeste 14 Oeste 0 925.6 -0.3 87
2018-12-03 00:00:00 10.5 8 Oeste 26 Sudoeste 0 925.6 0.3 85
2018-12-02 23:00:00 10.3 6 Este 24 Sudoeste 0 925.8 0.6 84
2018-12-02 22:00:00 9.9 4 Este 12 Nordeste 0 925.9 0.7 86
2018-12-02 21:00:00 10 6 Este 14 Nordeste 0 925.3 0.6 84
2018-12-02 20:00:00 10.5 5 Sudeste 19 Sudoeste 0 925.2 0.6 80
2018-12-02 19:00:00 10.7 11 Sudoeste 22 Sudoeste 0 925.2 0.7 78
2018-12-02 18:00:00 10.8 5 Este 36 Sudoeste 0 924.7 -0.3 74
2018-12-02 17:00:00 11.7 13 Sudoeste 36 Sudoeste 0 924.6 -1.1 71
2018-12-02 16:00:00 11.7 17 Sudoeste 42 Sudoeste 0 924.5 -1.2 68
2018-12-02 15:00:00 11 17 Sudoeste 40 Oeste 0 925 -0.7 73
2018-12-02 14:00:00 11.2 15 Oeste 32 Oeste 0 925.7 -0.1 77
2018-12-02 13:00:00 11.2 4 Sudoeste 10 Sudoeste 0 925.7 0.4 77
2018-12-02 12:00:00 9.8 5 Este 10 Este 0 925.7 0.5 85
2018-12-02 11:00:00 7.8 3 Norte 8 Norte 0 925.8 0.9 93
2018-12-02 10:00:00 6.6 7 Noroeste 11 Noroeste 0 925.3 0 94
2018-12-02 09:00:00 5.7 3 Noroeste 10 Norte 0 925.2 -0.1 92
2018-12-02 08:00:00 6.1 5 Noroeste 10 Oeste 0 924.9 -0.4 91
2018-12-02 07:00:00 6.5 4 Sudeste 12 Sudoeste 0 925.3 -0.1 91
2018-12-02 06:00:00 5.9 2 Sudoeste 7 Sudoeste 0 925.3 0.1 91
2018-12-02 05:00:00 5.6 3 Este 10 Oeste 0 925.3 -0.1 92
2018-12-02 04:00:00 5.7 6 Noroeste 11 Noroeste 0 925.4 -0.6 90
2018-12-02 03:00:00 6.3 4 Sudoeste 11 Norte 0 925.2 -0.7 87
2018-12-02 02:00:00 6.9 4 Este 9 Oeste 0 925.4 -0.1 85
2018-12-02 01:00:00 7.2 4 Oeste 13 Norte 0 926 0.1 83
2018-12-02 00:00:00 6.6 4 Oeste 10 Noroeste 0 925.9 0 87
2018-12-01 23:00:00 6.7 4 Sudoeste 9 Sudoeste 0 925.5 -0.3 86
2018-12-01 22:00:00 7.1 3 Norte 9 Sudeste 0 925.9 0.2 86
2018-12-01 21:00:00 7.3 3 Nordeste 10 Sur 0 925.9 0.7 84
2018-12-01 20:00:00 8 6 Sudoeste 27 Oeste 0 925.8 0.8 78
2018-12-01 19:00:00 8.1 4 Norte 22 Oeste 0 925.7 0.7 82
2018-12-01 18:00:00 8.9 8 Sudoeste 30 Oeste 0 925.2 0.2 75
2018-12-01 17:00:00 10.1 11 Oeste 27 Oeste 0 925 -0.2 67
2018-12-01 16:00:00 10.4 3 Sur 28 Oeste 0 925 -1.2 72
2018-12-01 15:00:00 10.9 13 Oeste 28 Oeste 0 925 -1.5 70
2018-12-01 14:00:00 10.8 11 Oeste 26 Sudoeste 0 925.2 -1.2 71
2018-12-01 13:00:00 10.1 6 Oeste 21 Sudoeste 0 926.2 0.2 74
2018-12-01 12:00:00 8.4 4 Este 10 Nordeste 0 926.5 0.7 83
2018-12-01 11:00:00 7.8 5 Este 14 Sudeste 0 926.4 1 82
2018-12-01 10:00:00 6.9 3 Este 11 Este 0 926 1.3 86
2018-12-01 09:00:00 5 5 Este 8 Este 0 925.8 0.6 91
2018-12-01 08:00:00 4.5 4 Oeste 8 Sudoeste 0 925.4 0.3 92
2018-12-01 07:00:00 4.7 4 Nordeste 9 Nordeste 0 924.7 -0.9 91
2018-12-01 06:00:00 5.1 4 Norte 12 Norte 0 925.2 -0.4 90
2018-12-01 05:00:00 4.9 7 Noroeste 12 Noroeste 0 925.1 -0.9 91
2018-12-01 04:00:00 4.8 3 Este 12 Noroeste 0 925.6 -0.7 90
2018-12-01 03:00:00 4.6 8 Noroeste 10 Noroeste 0 925.6 -0.3 91
2018-12-01 02:00:00 4.3 2 Sur 13 Norte 0 926 -0.5 89
2018-12-01 01:00:00 4 8 Noroeste 14 Noroeste 0 926.3 -0.3 91
2018-12-01 00:00:00 3.8 3 Sur 12 Oeste 0 925.9 -0.6 92
2018-11-30 23:00:00 3.2 6 Oeste 12 Oeste 0 926.5 0 93
2018-11-30 22:00:00 2.9 4 Oeste 12 Oeste 0 926.6 0.5 90
2018-11-30 21:00:00 3.4 6 Oeste 15 Oeste 0 926.5 1.1 87
2018-11-30 20:00:00 4.4 10 Oeste 18 Oeste 0 926.5 1 87
2018-11-30 19:00:00 4.5 8 Noroeste 15 Noroeste 0 926.1 0.8 86
2018-11-30 18:00:00 6.2 7 Oeste 21 Oeste 0 925.4 0.1 79
2018-11-30 17:00:00 7.8 10 Oeste 17 Oeste 0 925.5 -0.2 76
2018-11-30 16:00:00 8.6 7 Oeste 22 Oeste 0 925.3 -0.3 77
2018-11-30 15:00:00 9.4 11 Oeste 22 Noroeste 0 925.3 -0.6 71
2018-11-30 14:00:00 8.7 9 Oeste 25 Oeste 0 925.7 0.3 78
2018-11-30 13:00:00 8.7 8 Oeste 21 Oeste 0 925.6 0.6 74
2018-11-30 12:00:00 8.2 8 Oeste 16 Oeste 0 925.9 1.5 79
2018-11-30 11:00:00 8 8 Oeste 23 Oeste 0 925.4 1.7 83
2018-11-30 10:00:00 5.9 11 Oeste 22 Sudoeste 0 925 1.9 93
2018-11-30 09:00:00 3.6 8 Oeste 17 Oeste 0 924.4 1.6 95
2018-11-30 08:00:00 4.4 8 Oeste 15 Oeste 0.4 923.7 1.2 95
2018-11-30 07:00:00 4.5 9 Oeste 21 Oeste 0.2 923.1 0.8 95
2018-11-30 06:00:00 4.5 9 Oeste 16 Oeste 0 922.8 0.7 95
2018-11-30 05:00:00 4.4 7 Oeste 16 Oeste 0.4 922.5 0.4 93
2018-11-30 04:00:00 5 7 Oeste 16 Oeste 0.4 922.3 0.2 94
2018-11-30 03:00:00 4.9 9 Oeste 22 Oeste 0 922.1 0.1 93
2018-11-30 02:00:00 3.8 9 Noroeste 20 Oeste 0 922.1 0 94
2018-11-30 01:00:00 4 9 Oeste 19 Oeste 0 922.1 0.4 94
2018-11-30 00:00:00 4.4 8 Oeste 18 Oeste 0 922 0.7 95
2018-11-29 23:00:00 3.9 7 Oeste 13 Noroeste 0 922.1 1.1 96
2018-11-29 22:00:00 3.9 7 Noroeste 12 Oeste 0 921.7 1.2 96
2018-11-29 21:00:00 4.2 4 Oeste 9 Noroeste 0 921.3 1.3 95
2018-11-29 20:00:00 5 4 Norte 8 Nordeste 0 921 1.2 95
2018-11-29 19:00:00 6 2 Oeste 7 Sudeste 0 920.5 1.3 95
2018-11-29 18:00:00 6.8 3 Nordeste 9 Este 0 920 0.6 94
2018-11-29 17:00:00 7.5 2 Sur 9 Este 0 919.8 0.1 94
2018-11-29 16:00:00 7.3 6 Este 13 Nordeste 0.2 919.2 -0.1 95
2018-11-29 15:00:00 7.4 4 Sudoeste 8 Sudoeste 0.4 919.4 -0.1 95
2018-11-29 14:00:00 6.7 3 Nordeste 10 Nordeste 0.6 919.7 0.1 95
2018-11-29 13:00:00 6.8 6 Nordeste 12 Norte 0.4 919.3 0.4 94
2018-11-29 12:00:00 6.8 3 Nordeste 22 Este 0.6 919.5 0.4 93
2018-11-29 11:00:00 6.4 10 Este 22 Este 0 919.6 1.1 91
2018-11-29 10:00:00 6.4 13 Este 28 Nordeste 0 918.9 0.8 92
2018-11-29 09:00:00 5.4 8 Este 25 Nordeste 0.2 919.1 0.4 92
2018-11-29 08:00:00 5.6 12 Nordeste 27 Este 0.4 918.5 -0.3 88
2018-11-29 07:00:00 5.8 15 Este 33 Este 0 918.1 -1.6 78
2018-11-29 06:00:00 5.9 15 Este 26 Este 0 918.7 -1.2 72
2018-11-29 05:00:00 5.4 8 Nordeste 28 Este 0 918.8 -2.2 71
2018-11-29 04:00:00 6 7 Sur 28 Este 0 919.7 -1.1 66
2018-11-29 03:00:00 6.5 9 Este 28 Este 0 919.9 -0.2 66
2018-11-29 02:00:00 6.6 8 Este 32 Este 0 921 0 70
2018-11-29 01:00:00 7.1 13 Este 31 Sudeste 0 920.8 -0.5 66
2018-11-29 00:00:00 7.5 16 Este 44 Este 0 920.1 -2.2 66
2018-11-28 23:00:00 6.4 12 Este 23 Nordeste 0 921 -1.3 72
2018-11-28 22:00:00 5.8 7 Norte 19 Nordeste 0 921.3 -1 75
2018-11-28 21:00:00 5.7 7 Norte 13 Nordeste 0 922.3 -0.1 82
2018-11-28 14:00:00 10.5 8 Este 16 Sudeste 0 924 -1.5 71
2018-11-28 13:00:00 9.1 8 Este 18 Este 0 924.9 -0.5 74
2018-11-28 12:00:00 8.3 9 Este 17 Este 0 925.5 0.1 74
2018-11-28 11:00:00 6.5 6 Este 13 Sudeste 0 925.5 0.5 77
2018-11-28 10:00:00 4.8 4 Este 8 Este 0 925.4 1.3 87
2018-11-28 09:00:00 2.4 2 Oeste 8 Noroeste 0 925.4 1.6 93
2018-11-28 08:00:00 2 6 Noroeste 13 Noroeste 0 925 1.2 92
2018-11-28 07:00:00 1.9 4 Noroeste 11 Oeste 0 924.1 0.3 92
2018-11-28 06:00:00 1.8 6 Noroeste 13 Noroeste 0 923.8 -0.1 91
2018-11-28 05:00:00 2.8 2 Norte 12 Noroeste 0 923.8 -0.3 88
2018-11-28 04:00:00 3.1 7 Norte 12 Norte 0 923.8 -0.5 87
2018-11-28 03:00:00 3.9 3 Sur 13 Noroeste 0 923.9 -0.1 85
2018-11-28 02:00:00 4.4 8 Noroeste 13 Noroeste 0 924.1 -0.3 86
2018-11-28 01:00:00 5 5 Sudoeste 17 Norte 0 924.3 -0.1 86
2018-11-28 00:00:00 5.1 3 Sudoeste 15 Nordeste 0 924 -0.1 87
2018-11-27 23:00:00 5 5 Norte 11 Nordeste 0 924.4 -0.2 88
2018-11-27 22:00:00 5.3 8 Norte 13 Norte 0 924.4 0 89
2018-11-27 21:00:00 5 3 Noroeste 10 Nordeste 0 924.1 -0.4 88
2018-11-27 20:00:00 5.1 0 Calma 9 Norte 0 924.6 0.1 85
2018-11-27 19:00:00 5.3 2 Norte 8 Noroeste 0 924.4 -0.2 82
2018-11-27 18:00:00 6.4 2 Este 7 Norte 0 924.5 -0.5 79
2018-11-27 17:00:00 7.3 4 Norte 8 Norte 0 924.5 -0.5 72
2018-11-27 16:00:00 7.9 3 Este 10 Sudeste 0 924.6 -0.8 74
2018-11-27 15:00:00 8.5 4 Sudeste 9 Este 0 925 -0.9 71
2018-11-27 14:00:00 7.8 2 Sudoeste 8 Este 0 925 -0.5 73
2018-11-27 13:00:00 6.1 4 Este 8 Este 0 925.4 0.2 83
2018-11-27 12:00:00 5.3 3 Norte 9 Norte 0 925.9 0.8 87
2018-11-27 11:00:00 3.9 2 Este 8 Noroeste 0 925.5 0.3 90
2018-11-27 10:00:00 2.4 6 Noroeste 9 Noroeste 0 925.2 0.4 94
2018-11-27 09:00:00 1.5 5 Norte 8 Noroeste 0 925.1 0.4 94
2018-11-27 08:00:00 1.2 4 Oeste 9 Noroeste 0 925.2 0.2 93
2018-11-27 07:00:00 1.5 4 Noroeste 10 Noroeste 0 924.8 -0.9 93
2018-11-27 06:00:00 1.1 5 Noroeste 10 Noroeste 0 924.7 -1.2 93
2018-11-27 05:00:00 1.5 5 Noroeste 14 Noroeste 0 925 -1.2 92
2018-11-27 04:00:00 1.7 8 Noroeste 14 Noroeste 0 925.7 -0.8 93
2018-11-27 03:00:00 2 6 Noroeste 11 Noroeste 0 925.9 -0.3 92
2018-11-27 02:00:00 2.7 5 Noroeste 9 Oeste 0 926.2 -0.1 90
2018-11-27 01:00:00 2.7 8 Oeste 18 Oeste 0 926.5 0.5 92
2018-11-27 00:00:00 2.4 8 Noroeste 12 Noroeste 0 926.2 0.1 94
2018-11-26 23:00:00 3.3 4 Oeste 8 Noroeste 0 926.3 0.7 93
2018-11-26 22:00:00 2.6 5 Noroeste 15 Noroeste 0 926 0.9 92
2018-11-26 21:00:00 3.3 8 Noroeste 17 Oeste 0 926.1 1.8 90
2018-11-26 20:00:00 3.5 12 Oeste 20 Oeste 0 925.6 1.7 90
2018-11-26 19:00:00 3.2 7 Oeste 12 Oeste 0 925.1 1.6 87
2018-11-26 18:00:00 4.7 8 Oeste 15 Oeste 0 924.3 1.2 82
2018-11-26 17:00:00 6.5 8 Oeste 16 Oeste 0 923.9 1 77
2018-11-26 16:00:00 7.2 6 Oeste 14 Oeste 0 923.5 0.7 79
2018-11-26 15:00:00 7.1 4 Noroeste 13 Oeste 0 923.1 0.2 78
2018-11-26 14:00:00 6.7 8 Noroeste 17 Noroeste 0 922.9 1.1 82
2018-11-26 13:00:00 6 4 Nordeste 22 Noroeste 0 922.8 2.6 87
2018-11-26 12:00:00 5.1 11 Oeste 28 Oeste 0 922.9 4.1 91
2018-11-26 11:00:00 4.5 14 Oeste 41 Oeste 0.2 921.8 4.2 93
2018-11-26 10:00:00 4.7 14 Noroeste 43 Noroeste 0 920.2 3.7 93
2018-11-26 09:00:00 5 18 Oeste 41 Oeste 1.6 918.8 4.6 94
2018-11-26 08:00:00 5.1 11 Oeste 44 Oeste 0.2 917.6 5.5 94
2018-11-26 07:00:00 5.4 15 Oeste 59 Noroeste 0.2 916.5 4.7 92
2018-11-26 06:00:00 5.9 23 Oeste 63 Oeste 0 914.2 2.2 93
2018-11-26 05:00:00 5.7 29 Oeste 60 Oeste 0.6 912.1 -0.7 94
2018-11-26 04:00:00 5 27 Oeste 62 Sudoeste 0.2 911.8 -0.8 94
2018-11-26 03:00:00 4 18 Oeste 42 Oeste 0.4 912 0.3 93
2018-11-26 02:00:00 3.7 15 Oeste 36 Oeste 0 912.8 4.1 92
2018-11-26 01:00:00 3.8 18 Oeste 41 Oeste 0.2 912.6 3.9 94
2018-11-26 00:00:00 3.2 15 Oeste 68 Oeste 2.6 911.7 2.5 94
2018-11-25 23:00:00 4.6 4 Sudeste 17 Este 0.6 908.7 -1.8 95
2018-11-25 22:00:00 4.5 5 Este 26 Nordeste 0 908.7 -2.7 96
2018-11-25 21:00:00 4.5 12 Este 21 Nordeste 0 909.2 -2.6 95
2018-11-25 20:00:00 4.5 5 Nordeste 15 Este 0.8 910.5 -0.9 92
2018-11-25 19:00:00 5.2 4 Noroeste 19 Este 1.8 911.4 0.4 87
2018-11-25 18:00:00 6.6 4 Noroeste 13 Noroeste 0 911.8 -0.7 80
2018-11-25 17:00:00 6.9 5 Noroeste 10 Norte 0 911.4 -1.6 79
2018-11-25 16:00:00 7.5 4 Nordeste 15 Sudeste 0 911 -3.3 79
2018-11-25 15:00:00 8.6 5 Sudeste 13 Este 0 912.5 -2.4 78
2018-11-25 14:00:00 8.6 5 Sudeste 12 Sudeste 0 913 -1.6 79
2018-11-25 13:00:00 7.8 4 Sudeste 12 Este 0 914.3 -0.3 80
2018-11-25 12:00:00 6 5 Noroeste 9 Noroeste 0 914.9 0.7 84
2018-11-25 11:00:00 4.9 2 Sudeste 11 Noroeste 0 914.6 0.6 90
2018-11-25 10:00:00 3.6 0 Calma 7 Sudeste 0 914.6 0.9 95
2018-11-25 09:00:00 1.4 4 Sur 8 Sudoeste 0 914.2 0.9 95
2018-11-25 08:00:00 1.3 2 Sur 17 Oeste 0 914 1 94
2018-11-25 07:00:00 2.8 6 Oeste 16 Noroeste 0 913.7 0.8 92
2018-11-25 06:00:00 4.1 5 Noroeste 14 Oeste 0 913.3 0.9 94
2018-11-25 05:00:00 4.8 5 Oeste 19 Noroeste 0 913 0.7 94
2018-11-25 04:00:00 5.4 6 Oeste 17 Noroeste 0.2 912.9 0.6 94
2018-11-25 03:00:00 6 7 Oeste 18 Noroeste 1.2 912.4 0.8 95
2018-11-25 02:00:00 6.6 6 Oeste 21 Oeste 0.6 912.3 1.3 94
2018-11-25 01:00:00 6.9 8 Oeste 20 Noroeste 0.6 912.3 1.6 93
2018-11-25 00:00:00 8.1 8 Noroeste 38 Sudoeste 1.4 911.6 0.8 93
2018-11-24 23:00:00 9 14 Oeste 33 Oeste 0.8 911 0.1 91
2018-11-24 22:00:00 9.1 13 Sudoeste 39 Sudoeste 0.8 910.7 -0.2 86
2018-11-24 21:00:00 8.9 11 Sudoeste 53 Sur 0.2 910.8 -0.7 85
2018-11-24 20:00:00 9.1 14 Sudoeste 54 Sudoeste 0.2 910.9 -0.9 80
2018-11-24 19:00:00 7.6 9 Sudeste 30 Sudoeste 0 910.9 -1.6 86
2018-11-24 18:00:00 7.2 5 Este 25 Nordeste 0.4 911.5 -1.1 90
2018-11-24 17:00:00 7.7 10 Este 28 Este 0.6 911.8 -2.1 89
2018-11-24 16:00:00 8.7 7 Norte 34 Norte 0 912.5 -2.6 80
2018-11-24 15:00:00 11.1 13 Nordeste 38 Oeste 0 912.6 -3.5 73
2018-11-24 14:00:00 9.1 13 Este 24 Este 0 913.9 -2.5 81
2018-11-24 13:00:00 8.5 6 Este 26 Norte 0 915.1 -1.3 82
2018-11-24 12:00:00 7.7 6 Este 13 Este 0.2 916.1 0 90
2018-11-24 11:00:00 7.2 6 Este 12 Este 0 916.4 0.2 92
2018-11-24 10:00:00 6.3 4 Sudeste 10 Nordeste 0 916.4 0.6 93
2018-11-24 09:00:00 5.2 5 Este 10 Norte 0 916.1 0 94
2018-11-24 08:00:00 4.9 3 Noroeste 9 Oeste 0 916.2 0 93
2018-11-24 07:00:00 4.9 4 Este 8 Norte 0 915.8 -0.9 94
2018-11-24 06:00:00 4.8 2 Nordeste 12 Nordeste 0 916.1 -0.5 93
2018-11-24 05:00:00 4.7 2 Sur 7 Sur 0 916.2 -0.7 91
2018-11-24 04:00:00 4.9 3 Nordeste 14 Oeste 0 916.7 -0.3 90
2018-11-24 03:00:00 5.3 8 Oeste 17 Sudoeste 0 916.6 -0.2 89
2018-11-24 02:00:00 5.2 9 Oeste 19 Oeste 0.4 916.9 0.1 89
2018-11-24 01:00:00 5.2 6 Oeste 17 Sudoeste 0.2 917 0.6 92
2018-11-24 00:00:00 5.1 5 Sudoeste 21 Sudoeste 0 916.8 0.5 89
2018-11-23 23:00:00 5.3 9 Sudoeste 24 Oeste 0.8 916.8 0.6 88
2018-11-23 22:00:00 5.6 8 Oeste 19 Sudoeste 0 916.4 0.3 85
2018-11-23 21:00:00 5.4 3 Este 13 Noroeste 0 916.3 0.6 84
2018-11-23 20:00:00 5 7 Oeste 19 Oeste 0 916.2 0.5 85
2018-11-23 19:00:00 5.5 11 Oeste 28 Oeste 0 916.1 0.7 81
2018-11-23 18:00:00 6 10 Oeste 29 Sudoeste 0 915.7 0.2 79
2018-11-23 17:00:00 6.6 13 Oeste 40 Oeste 0 915.7 0.1 77
2018-11-23 16:00:00 7 15 Oeste 37 Sudoeste 0 915.4 -0.3 77
2018-11-23 15:00:00 8.2 15 Sudoeste 30 Sudoeste 0 915.5 -0.7 71
2018-11-23 14:00:00 9 14 Sudoeste 35 Sudoeste 0 915.6 -0.5 67
2018-11-23 13:00:00 9.4 14 Sudoeste 33 Oeste 0 915.7 -0.4 65
2018-11-23 12:00:00 9.1 14 Sudoeste 29 Oeste 0 916.2 0.5 72
2018-11-23 11:00:00 6.5 7 Sudeste 18 Sur 0 916.1 0.7 83
2018-11-23 10:00:00 3.2 2 Este 7 Norte 0 916.1 0.9 94
2018-11-23 09:00:00 2.1 4 Noroeste 11 Oeste 0 915.7 0.6 95
2018-11-23 08:00:00 1.5 7 Oeste 13 Oeste 0 915.4 0.4 94
2018-11-23 07:00:00 2 4 Norte 11 Oeste 0 915.2 0.2 93
2018-11-23 06:00:00 2.9 3 Oeste 11 Noroeste 0 915.1 0.1 95
2018-11-23 05:00:00 2.5 6 Noroeste 18 Sudoeste 0 915 -0.1 94
2018-11-23 04:00:00 2.4 7 Sudoeste 37 Oeste 1.8 915 -0.5 93
2018-11-23 03:00:00 3.1 5 Norte 10 Sudoeste 0 915 -0.1 93
2018-11-23 02:00:00 3.2 5 Oeste 17 Oeste 0 915.1 -0.1 93
2018-11-23 01:00:00 3.5 8 Noroeste 23 Oeste 1.6 915.5 0.3 91
2018-11-23 00:00:00 4.3 4 Sudoeste 13 Este 0 915.1 -0.2 92
2018-11-22 23:00:00 4.5 3 Este 17 Norte 0 915.2 0.1 91
2018-11-22 22:00:00 4.5 7 Nordeste 14 Nordeste 0 915.2 0.2 90
2018-11-22 21:00:00 4.8 4 Este 14 Este 0 915.3 1.1 88
2018-11-22 20:00:00 4.9 5 Nordeste 15 Sudeste 0 915.1 1 87
2018-11-22 19:00:00 5.2 7 Este 18 Sudeste 0 915 0.9 86
2018-11-22 18:00:00 5.8 5 Noroeste 24 Sudoeste 0.2 914.2 0.1 82
2018-11-22 17:00:00 7.3 6 Sudeste 18 Este 0 914.1 -0.4 79
2018-11-22 16:00:00 8.3 10 Sudeste 29 Sudeste 0 914.1 -0.8 65
2018-11-22 15:00:00 8.7 13 Sudeste 29 Sudeste 0 914.1 -1.4 67
2018-11-22 14:00:00 8.3 8 Sudeste 28 Este 0 914.5 -1.2 75
2018-11-22 13:00:00 7.4 13 Este 26 Sudeste 0 914.9 -0.6 83
2018-11-22 12:00:00 6.1 13 Este 27 Este 0 915.5 0.6 87
2018-11-22 11:00:00 5.4 8 Este 14 Este 0 915.7 0.9 95
2018-11-22 10:00:00 3.7 4 Sudeste 14 Sudeste 0 915.5 1.1 95
2018-11-22 09:00:00 3.2 6 Sudeste 14 Este 0.2 914.9 0.5 95
2018-11-22 08:00:00 3 7 Sudeste 13 Noroeste 0 914.8 0.7 95
2018-11-22 07:00:00 3.2 4 Noroeste 12 Oeste 1 914.4 0.1 95
2018-11-22 06:00:00 3.1 4 Este 10 Sur 0.4 914.4 0.4 95
2018-11-22 05:00:00 2.7 6 Oeste 20 Oeste 0.6 914.1 -0.1 93
2018-11-22 04:00:00 3.4 14 Oeste 29 Oeste 1.2 914.3 0.1 91
2018-11-22 03:00:00 4.3 6 Nordeste 14 Este 0.4 914 0.2 93
2018-11-22 02:00:00 3.9 4 Sudoeste 14 Este 0.2 914.2 0.3 93
2018-11-22 01:00:00 4 6 Nordeste 16 Sudeste 0 914.2 0.5 93
2018-11-22 00:00:00 3.8 4 Este 17 Sudeste 0 913.8 0.4 93
2018-11-21 23:00:00 3.5 8 Nordeste 12 Nordeste 0 913.9 0.7 93
2018-11-21 22:00:00 3.8 3 Sudeste 13 Noroeste 0 913.7 1.1 93
2018-11-21 21:00:00 3.9 5 Este 13 Este 0 913.4 1.2 93
2018-11-21 20:00:00 4.1 5 Este 14 Este 0 913.2 1.4 92
2018-11-21 19:00:00 4.5 7 Sudeste 15 Este 0.2 912.6 1 92
2018-11-21 18:00:00 5.4 5 Este 9 Este 0 912.2 1.1 89
2018-11-21 17:00:00 5.9 4 Sudeste 17 Este 0 911.8 0.7 84
2018-11-21 16:00:00 6.2 6 Oeste 24 Oeste 1 911.6 0.4 87
2018-11-21 15:00:00 7.1 6 Este 16 Nordeste 0 911.1 -0.2 81
2018-11-21 14:00:00 7.9 8 Noroeste 23 Oeste 0 911.1 0.2 85
2018-11-21 13:00:00 7.7 4 Este 17 Este 0 911.2 1 82
2018-11-21 12:00:00 7.1 7 Sudeste 15 Este 0.2 911.3 1.6 86
2018-11-21 11:00:00 4.8 3 Este 13 Este 0.6 910.9 1.9 94
2018-11-21 10:00:00 3.9 5 Noroeste 22 Oeste 0.6 910.2 1.6 93
2018-11-21 09:00:00 4.2 4 Nordeste 12 Noroeste 0.8 909.7 1.2 95
2018-11-21 08:00:00 3.8 2 Este 8 Noroeste 0.2 909 0.9 95
2018-11-21 07:00:00 4 2 Sur 9 Sudoeste 0 908.6 0.6 94
2018-11-21 06:00:00 4.4 3 Nordeste 7 Oeste 0 908.5 0.6 95
2018-11-21 05:00:00 4.3 2 Este 7 Sur 0.2 908.1 0.1 94
2018-11-21 04:00:00 4.2 4 Sudoeste 9 Noroeste 0.8 908 0 94
2018-11-21 03:00:00 4.2 3 Noroeste 9 Oeste 1.4 907.9 0.1 93
2018-11-21 02:00:00 4 4 Oeste 15 Noroeste 0 908 0.7 92
2018-11-21 01:00:00 3.8 9 Oeste 14 Oeste 0 908 1.1 93
2018-11-21 00:00:00 3.9 5 Oeste 15 Oeste 0 907.8 1.2 93
2018-11-20 23:00:00 4.3 0 Calma 14 Oeste 0 907.3 1.3 92
2018-11-20 22:00:00 5.2 6 Oeste 23 Oeste 0.4 906.9 1.4 93
2018-11-20 21:00:00 6 8 Oeste 21 Noroeste 0.4 906.6 1.9 94
2018-11-20 20:00:00 6.2 6 Oeste 14 Oeste 1.6 906 1.6 94
2018-11-20 19:00:00 6.5 6 Oeste 18 Noroeste 2 905.5 1.5 94
2018-11-20 18:00:00 6.7 8 Oeste 24 Oeste 0.8 904.7 0.9 91
2018-11-20 17:00:00 7.4 13 Oeste 25 Oeste 0 904.4 0.6 87
2018-11-20 16:00:00 8 9 Oeste 27 Noroeste 0.4 904 0 87
2018-11-20 15:00:00 10.5 9 Oeste 27 Oeste 0 903.8 -0.3 73
2018-11-20 14:00:00 11.2 15 Oeste 34 Oeste 0 903.8 -0.3 72
2018-11-20 13:00:00 8.7 12 Oeste 32 Sudoeste 0 904 0.1 85
2018-11-20 12:00:00 9.1 10 Oeste 27 Sudoeste 0.2 904.1 0.7 92
2018-11-20 11:00:00 7 4 Oeste 21 Sudoeste 2.8 904.1 0.8 95
2018-11-20 10:00:00 6.1 7 Noroeste 21 Oeste 1.8 903.9 0.4 94
2018-11-20 09:00:00 5.6 12 Oeste 27 Sudoeste 2.8 903.4 -0.3 92
2018-11-20 08:00:00 6.6 13 Oeste 27 Oeste 3.6 903.3 -0.6 93
2018-11-20 07:00:00 7 5 Oeste 16 Oeste 0.6 903.5 -0.9 95
2018-11-20 06:00:00 7.1 4 Sudoeste 20 Oeste 0.4 903.7 -1.2 94
2018-11-20 05:00:00 7.6 8 Oeste 19 Noroeste 0.6 903.9 -1.4 95
2018-11-20 04:00:00 7.6 5 Oeste 12 Oeste 1.4 904.4 -1.4 95
2018-11-20 03:00:00 7.9 0 Calma 5 Sudeste 1.2 904.9 -1.5 95
2018-11-20 02:00:00 7.8 2 Noroeste 10 Noroeste 0.4 905.3 -1.5 95
2018-11-20 01:00:00 7.9 6 Noroeste 15 Oeste 0.2 905.8 -1.3 95
2018-11-20 00:00:00 7.9 5 Noroeste 13 Oeste 0 906.4 -0.7 95
2018-11-19 23:00:00 7.9 6 Oeste 20 Oeste 0.8 906.8 -0.5 94
2018-11-19 22:00:00 8.3 9 Oeste 22 Oeste 4.8 907.1 -0.2 94
2018-11-19 21:00:00 8.9 6 Oeste 11 Oeste 0 907.1 -0.3 93
2018-11-19 20:00:00 9.1 3 Noroeste 7 Oeste 0 907.3 -0.1 92
2018-11-19 19:00:00 9.3 3 Noroeste 8 Oeste 0 907.3 -0.1 91
2018-11-19 18:00:00 9.9 3 Oeste 4 Oeste 0 907.4 -0.1 88
2018-11-19 17:00:00 10.4 0 Calma 12 Noroeste 0.4 907.4 -0.5 85
2018-11-19 16:00:00 11.1 6 Noroeste 15 Sudoeste 0 907.4 -1 79
2018-11-19 15:00:00 11.7 0 Calma 9 Sudeste 0 907.5 -1.4 80
2018-11-19 14:00:00 12 5 Este 12 Este 0 907.9 -1.2 74
2018-11-19 13:00:00 11.6 5 Este 14 Este 0 908.4 -0.4 74
2018-11-19 12:00:00 11.1 8 Este 17 Nordeste 0 908.9 0.5 80
2018-11-19 11:00:00 9.5 6 Este 12 Sudeste 0 909.1 1.1 91
2018-11-19 10:00:00 7.7 2 Sudeste 16 Este 0 908.8 1.4 95
2018-11-19 09:00:00 7.5 7 Este 14 Este 0 908.4 1.1 96
2018-11-19 08:00:00 7.5 3 Norte 14 Nordeste 0 908 0.8 96
2018-11-19 07:00:00 7.6 7 Este 12 Este 0 907.4 0.4 96
2018-11-19 06:00:00 8 4 Este 9 Este 0.2 907.3 0.3 96
2018-11-19 05:00:00 8 4 Este 7 Este 0.2 907.2 0.4 96
2018-11-19 04:00:00 8 5 Este 10 Este 0.2 907 0.1 96
2018-11-19 03:00:00 8.1 6 Este 10 Nordeste 0.4 907 0 95
2018-11-19 02:00:00 8.3 5 Este 9 Este 0.6 906.8 -0.2 95
2018-11-19 01:00:00 8.6 4 Este 10 Este 0.4 906.9 0 95
2018-11-19 00:00:00 8.7 4 Este 10 Este 0.2 907 0.3 92
2018-11-18 23:00:00 9.2 9 Nordeste 17 Nordeste 0 907 0.3 91
2018-11-18 22:00:00 9.7 6 Norte 15 Noroeste 0 906.9 0.1 88
2018-11-18 21:00:00 9.8 5 Noroeste 14 Noroeste 0 906.7 0 86
2018-11-18 20:00:00 10.2 5 Oeste 15 Noroeste 0 906.7 0 81
2018-11-18 19:00:00 10.1 5 Oeste 8 Oeste 0 906.8 -0.1 79
2018-11-18 18:00:00 10.7 2 Sudeste 11 Nordeste 0 906.7 -0.7 75
2018-11-18 17:00:00 11.9 6 Nordeste 12 Nordeste 0 906.7 -1.2 72
2018-11-18 16:00:00 13 4 Sudeste 10 Este 0 906.9 -1.6 67
2018-11-18 15:00:00 13.1 6 Este 14 Sudeste 0 907.4 -1.9 68
2018-11-18 14:00:00 13.1 7 Este 20 Este 0 907.9 -1.5 67
2018-11-18 13:00:00 12.5 10 Este 22 Este 0 908.5 -1 69
2018-11-18 12:00:00 12.3 11 Este 21 Este 0 909.3 -0.4 72
2018-11-18 11:00:00 10.7 10 Nordeste 22 Este 0 909.4 -0.5 77
2018-11-18 10:00:00 10.4 8 Este 13 Sudeste 0 909.5 -0.3 80
2018-11-18 09:00:00 7.5 0 Calma 5 Nordeste 0 909.7 -0.4 88
2018-11-18 08:00:00 7.7 2 Este 15 Nordeste 0 909.9 -0.6 86
2018-11-18 07:00:00 7.8 5 Nordeste 11 Nordeste 0 909.8 -1.3 87
2018-11-18 06:00:00 7.8 4 Sudoeste 15 Nordeste 0 910.1 -1.4 85
2018-11-18 05:00:00 7.8 4 Nordeste 15 Norte 0 910.5 -1.6 87
2018-11-18 04:00:00 7.7 6 Norte 11 Noroeste 0 911.1 -1.6 88
2018-11-18 03:00:00 7.7 2 Norte 9 Sudoeste 0 911.5 -1.6 87
2018-11-18 02:00:00 7.9 3 Oeste 12 Norte 0 912.1 -1.6 87
2018-11-18 01:00:00 8.3 3 Oeste 7 Nordeste 0 912.7 -1.2 84
2018-11-18 00:00:00 8.7 3 Norte 8 Nordeste 0 913.1 -1.3 83
2018-11-17 23:00:00 8.9 4 Este 14 Este 0 913.7 -0.8 81
2018-11-17 22:00:00 8.9 8 Sudeste 15 Nordeste 0 913.9 -0.7 81
2018-11-17 21:00:00 9.8 8 Este 20 Sudeste 0 914.4 -0.2 76
2018-11-17 20:00:00 10.8 11 Sudeste 27 Sudeste 0 914.5 -0.2 73
2018-11-17 19:00:00 12.1 14 Sudeste 36 Sudeste 0 914.6 -0.4 68
2018-11-17 18:00:00 12.4 12 Este 24 Nordeste 0 914.6 -0.6 67
2018-11-17 17:00:00 13.8 13 Este 37 Sudeste 0 914.7 -1.2 63
2018-11-17 16:00:00 13.7 15 Sudeste 40 Sudeste 0 915 -2 62
2018-11-17 15:00:00 13.7 19 Sudeste 40 Sudeste 0 915.2 -2.6 62
2018-11-17 14:00:00 14.6 17 Sudeste 41 Sudeste 0 915.9 -2 60
2018-11-17 13:00:00 13.2 15 Sudeste 35 Sudeste 0 917 -1.1 68
2018-11-17 12:00:00 13 8 Este 15 Este 0 917.8 -0.2 73
2018-11-17 11:00:00 10.9 7 Nordeste 14 Nordeste 0 917.9 0.3 79
2018-11-17 10:00:00 10.3 5 Este 15 Nordeste 0 918.1 0.6 81
2018-11-17 09:00:00 9.1 5 Nordeste 15 Nordeste 0 918 0.4 86
2018-11-17 08:00:00 8.7 7 Nordeste 14 Nordeste 0 917.6 -0.3 90
2018-11-17 07:00:00 7.6 3 Noroeste 8 Noroeste 0 917.5 -0.6 92
2018-11-17 06:00:00 7.8 4 Noroeste 7 Oeste 0 917.6 -0.7 93
2018-11-17 05:00:00 7.7 3 Oeste 8 Sudoeste 0 917.9 -0.5 92
2018-11-17 04:00:00 8.4 5 Este 19 Nordeste 0 918.1 -0.4 89
2018-11-17 03:00:00 8.9 7 Nordeste 17 Norte 0 918.3 -0.2 87
2018-11-17 02:00:00 9.6 4 Norte 28 Este 0 918.4 -0.7 82
2018-11-17 01:00:00 11.1 11 Este 35 Este 0 918.5 -0.8 76
2018-11-17 00:00:00 11.1 15 Este 30 Nordeste 0 918.5 -0.7 76
2018-11-16 23:00:00 11 9 Este 27 Sudeste 0 919.1 -0.4 78
2018-11-16 22:00:00 11.2 14 Este 32 Sudeste 0 919.3 -0.1 76
2018-11-16 21:00:00 11.1 8 Este 28 Nordeste 0 919.2 -0.2 76
2018-11-16 20:00:00 11.2 13 Este 33 Este 0 919.5 0.2 78
2018-11-16 19:00:00 11.7 12 Este 25 Este 0 919.4 -0.2 74
2018-11-16 18:00:00 12.1 7 Este 21 Sudeste 0 919.4 -0.6 75
2018-11-16 17:00:00 13.3 10 Sudeste 19 Sudeste 0 919.3 -1.5 71
2018-11-16 16:00:00 13.7 9 Este 21 Este 0 919.6 -2 70
2018-11-16 15:00:00 14.3 12 Este 22 Nordeste 0 920 -2.2 69
2018-11-16 14:00:00 14.2 13 Este 26 Nordeste 0 920.8 -1.7 71
2018-11-16 13:00:00 13.9 10 Este 24 Este 0 921.6 -0.8 75
2018-11-16 12:00:00 12.1 11 Este 21 Este 0 922.2 -0.2 79
2018-11-16 11:00:00 10.4 9 Este 17 Este 0 922.5 0.8 87
2018-11-16 10:00:00 9.3 7 Este 13 Este 0 922.4 1.1 93
2018-11-16 09:00:00 7.3 4 Nordeste 9 Norte 0 922.4 1.2 96
2018-11-16 08:00:00 6.2 3 Oeste 10 Sudoeste 0 921.7 0.3 96
2018-11-16 07:00:00 6.1 4 Sudoeste 11 Nordeste 0 921.3 -0.6 95
2018-11-16 06:00:00 6.3 3 Nordeste 10 Este 0 921.2 -1 95
2018-11-16 05:00:00 6.5 4 Sudeste 8 Sudeste 0 921.4 -0.7 94
2018-11-16 04:00:00 6.9 0 Calma 7 Sudoeste 0 921.9 0 94
2018-11-16 03:00:00 7 3 Sudoeste 10 Sudoeste 0 922.2 -0.1 94
2018-11-16 02:00:00 7.3 4 Sur 14 Norte 0 922.1 -0.5 92
2018-11-16 01:00:00 7.5 8 Norte 16 Norte 0 921.9 -0.9 93
2018-11-16 00:00:00 7.5 0 Calma 10 Este 0 922.3 -0.3 93
2018-11-15 23:00:00 7.4 3 Nordeste 10 Oeste 0 922.6 0.1 93
2018-11-15 22:00:00 7.7 8 Noroeste 15 Noroeste 0 922.8 1.1 91
2018-11-15 21:00:00 8.9 5 Oeste 10 Noroeste 0 922.6 1.5 91
2018-11-15 20:00:00 9.8 6 Noroeste 10 Noroeste 0 922.5 1.7 88
2018-11-15 19:00:00 10.9 0 Calma 7 Sudoeste 0 921.7 1.2 86
2018-11-15 18:00:00 12.3 3 Sudoeste 8 Este 0 921.1 0.5 81
2018-11-15 17:00:00 13.2 7 Este 13 Nordeste 0 920.8 -0.3 77
2018-11-15 16:00:00 14.1 8 Este 21 Nordeste 0 920.5 -0.9 71
2018-11-15 15:00:00 13.9 7 Este 16 Este 0 920.6 -1.2 72
2018-11-15 14:00:00 13.7 7 Este 17 Este 0 921.1 -0.7 76
2018-11-15 13:00:00 15.5 9 Este 19 Nordeste 0 921.4 -0.4 67
2018-11-15 12:00:00 13.7 11 Este 18 Este 0 921.8 0.4 76
2018-11-15 11:00:00 11.4 7 Este 13 Este 0 921.8 1.1 85
2018-11-15 10:00:00 10.2 3 Este -- -- 0 921.8 1.7 91
2018-11-15 09:00:00 8.4 4 Oeste 7 Oeste 0 921.4 1.9 94
2018-11-15 08:00:00 7.9 3 Oeste 9 Oeste 0 920.7 1.1 93
2018-11-15 07:00:00 7.9 3 Noroeste 9 Sur 0 920.1 0.1 92
2018-11-15 06:00:00 8.2 3 Sudoeste 15 Este 0 919.5 -0.5 92
2018-11-15 05:00:00 8.4 7 Nordeste 11 Nordeste 0 919.6 -0.7 93
2018-11-15 04:00:00 7.5 3 Nordeste 13 Nordeste 0 920 -0.7 93
2018-11-15 03:00:00 7.3 5 Norte 10 Norte 0 920 -0.8 94
2018-11-15 02:00:00 7.5 4 Oeste 8 Nordeste 0 920.3 -0.9 93
2018-11-15 01:00:00 7.8 4 Nordeste 15 Este 0 920.7 -0.7 94
2018-11-15 00:00:00 7.4 3 Sudoeste 13 Nordeste 0 920.8 -0.8 94
2018-11-14 23:00:00 8.1 6 Este 21 Este 0 921.2 -0.6 93
2018-11-14 22:00:00 8.4 6 Este 21 Este 0 921.4 -0.6 92
2018-11-14 21:00:00 8.9 6 Este 13 Nordeste 0 921.6 -0.3 89
2018-11-14 20:00:00 9.5 6 Este 16 Este 0 921.8 -0.2 85
2018-11-14 19:00:00 10.3 8 Este 18 Este 0 922 -0.1 83
2018-11-14 18:00:00 12.1 5 Este 14 Este 0 921.9 -0.5 75
2018-11-14 17:00:00 13.7 8 Sudeste 17 Sudeste 0 922 -1.3 64
2018-11-14 16:00:00 14.6 5 Este 23 Este 0 922.1 -1.8 67
2018-11-14 15:00:00 14.5 13 Este 23 Sudeste 0 922.4 -2.5 70
2018-11-14 14:00:00 13.9 7 Este 22 Sudeste 0 923.3 -1.8 71
2018-11-14 13:00:00 12.9 12 Este 22 Este 0 923.9 -1.3 74
2018-11-14 12:00:00 11.3 8 Este 15 Nordeste 0 924.9 -0.2 80
2018-11-14 11:00:00 9.7 5 Nordeste 11 Este 0 925.1 0 87
2018-11-14 10:00:00 7.8 6 Nordeste 11 Este 0 925.2 -0.1 95
2018-11-14 09:00:00 5.6 4 Norte 7 Norte 0 925.1 -0.3 96
2018-11-14 08:00:00 5.2 4 Nordeste 8 Nordeste 0 925.1 -0.3 96
2018-11-14 07:00:00 5.2 0 Calma 7 Sudoeste 0 925.3 -0.4 96
2018-11-14 06:00:00 4.7 4 Oeste 10 Noroeste 0 925.4 -0.6 95
2018-11-14 05:00:00 4.5 4 Oeste 9 Sudoeste 0 925.4 -1 96
2018-11-14 04:00:00 4.9 4 Este 9 Este 0 925.7 -1.3 95
2018-11-14 03:00:00 5 4 Este 8 Nordeste 0 926 -1.2 95
2018-11-14 02:00:00 5.1 5 Este 11 Este 0 926.4 -1.1 95
2018-11-14 01:00:00 5 3 Norte 9 Nordeste 0 927 -0.6 95
2018-11-14 00:00:00 5.2 2 Sudoeste 14 Nordeste 0 927.2 -0.1 95
2018-11-13 23:00:00 5.5 4 Este 8 Este 0 927.5 0.1 94
2018-11-13 22:00:00 5.6 0 Calma 6 Oeste 0 927.6 0.1 93
2018-11-13 21:00:00 6.4 4 Sudeste 14 Nordeste 0 927.3 -0.2 88
2018-11-13 20:00:00 6.9 6 Sudeste 10 Sudeste 0 927.4 0 87
2018-11-13 19:00:00 7.3 4 Nordeste 6 Nordeste 0 927.5 0.3 85
2018-11-13 18:00:00 8.5 2 Sudeste 4 Sur 0 927.5 0.2 82
2018-11-13 17:00:00 9.3 3 Nordeste 10 Este 0 927.4 -0.2 78
2018-11-13 16:00:00 10 6 Nordeste 19 Nordeste 0 927.2 -1.1 74
2018-11-13 15:00:00 10 8 Este 21 Sudeste 0 927.3 -1.9 74
2018-11-13 14:00:00 9 10 Sudeste 19 Este 0 927.6 -1.4 74
2018-11-13 13:00:00 7.9 8 Este 17 Nordeste 0 928.3 -0.5 81
2018-11-13 12:00:00 4.9 4 Este 12 Este 0 929.2 1.1 96
2018-11-13 11:00:00 3.2 5 Este 9 Este 0 929 1.4 96
2018-11-13 10:00:00 2.4 3 Sur 9 Noroeste 5.2 928.8 1 96
2018-11-13 09:00:00 2.5 4 Este 13 Este 0 928.1 0.7 96
2018-11-13 08:00:00 2.5 5 Este 10 Este 0 927.6 0.6 96
2018-11-13 07:00:00 2.4 3 Noroeste 9 Noroeste 0 927.8 1.2 96
2018-11-13 06:00:00 2.4 6 Noroeste 10 Norte 0 927.4 1.1 96
2018-11-13 05:00:00 2.4 2 Noroeste 8 Norte 0 927 1.1 96
2018-11-13 04:00:00 1.8 3 Noroeste 10 Noroeste 0 926.6 0.8 95
2018-11-13 03:00:00 1 5 Noroeste 10 Noroeste 0 926.3 0.6 95
2018-11-13 02:00:00 1.6 6 Noroeste 8 Noroeste 0 925.9 0.3 95
2018-11-13 01:00:00 1.9 3 Nordeste 13 Oeste 0 925.8 0.8 93
2018-11-13 00:00:00 2.2 7 Noroeste 12 Oeste 0 925.7 1.4 93
2018-11-12 23:00:00 2.8 6 Noroeste 15 Oeste 0 925.6 2.1 92
2018-11-12 22:00:00 2.7 8 Noroeste 13 Oeste 0 925 2.3 93
2018-11-12 21:00:00 3.1 7 Noroeste 14 Noroeste 0 924.3 2.2 93
2018-11-12 20:00:00 4.4 6 Noroeste 10 Noroeste 0 923.5 2.1 92
2018-11-12 19:00:00 5.7 4 Noroeste 8 Noroeste 0 922.7 1.8 87
2018-11-12 18:00:00 7.5 3 Sudoeste 6 Sudeste 0 922.1 1.7 86
2018-11-12 17:00:00 8.5 4 Sudeste 11 Sudeste 0 921.4 1 80
2018-11-12 16:00:00 9.5 6 Sudeste 13 Sudeste 0 920.9 0.6 76
2018-11-12 15:00:00 9.7 6 Sudeste 13 Sudeste 0 920.4 0.3 76
2018-11-12 14:00:00 9.1 4 Este 14 Nordeste 0 920.4 0.8 79
2018-11-12 13:00:00 7.8 6 Este 13 Sudeste 0 920.3 0.8 85
2018-11-12 12:00:00 7 7 Sudeste 12 Sudeste 0 920.1 1.5 89
2018-11-12 11:00:00 7.1 5 Norte 12 Nordeste 0 919.6 2.1 92
2018-11-12 10:00:00 5.1 3 Este 10 Este 0 919.5 2.9 95
2018-11-12 09:00:00 4 4 Noroeste 9 Noroeste 0 918.6 2 96
2018-11-12 08:00:00 3.3 4 Sudeste 12 Noroeste 0 917.5 1.2 96
2018-11-12 07:00:00 2.3 4 Noroeste 15 Oeste 0 916.6 0.7 95
2018-11-12 06:00:00 2.8 8 Oeste 17 Oeste 0 916.6 1.9 95
2018-11-12 05:00:00 3.2 6 Noroeste 10 Noroeste 0 916.3 2 94
2018-11-12 04:00:00 4.1 4 Noroeste 8 Noroeste 0 915.9 1.6 95
2018-11-12 03:00:00 4.7 5 Noroeste 7 Noroeste 0 914.7 0.8 94
2018-11-12 02:00:00 5 3 Noroeste 6 Noroeste 0 914.3 0.3 95
2018-11-12 01:00:00 4.9 0 Calma 4 Noroeste 0 914.3 0.6 94
2018-11-12 00:00:00 5 0 Calma 6 Oeste 0 913.9 0.6 94
2018-11-11 23:00:00 4.9 2 Sur 14 Este 0 914 0.8 94
2018-11-11 22:00:00 4.9 9 Nordeste 15 Este 0.2 913.7 0.8 93
2018-11-11 21:00:00 5.5 3 Sudeste 8 Sudeste 0 913.3 1 92
2018-11-11 20:00:00 6.1 5 Este 12 Este 0 913.2 0.4 94
2018-11-11 19:00:00 6.5 4 Sudeste 22 Nordeste 0.2 912.9 0 92
2018-11-11 18:00:00 6.7 8 Sur 22 Sudoeste 0 912.3 0 90
2018-11-11 17:00:00 7.9 6 Oeste 20 Oeste 0 912.8 -0.1 91
2018-11-11 16:00:00 8.8 3 Sur 9 Este 0 912.9 -0.4 92
2018-11-11 15:00:00 9 3 Nordeste 10 Este 0 912.3 -1.5 90
2018-11-11 14:00:00 9 8 Este 12 Sudeste 0.2 912.9 -0.6 91
2018-11-11 13:00:00 9.1 4 Sudoeste 28 Oeste 0 913.3 0.4 89
2018-11-11 12:00:00 9.8 13 Oeste 28 Sudoeste 0 913.8 1.1 88
2018-11-11 11:00:00 10.2 0 Calma 16 Noroeste 0 913.5 1.3 94
2018-11-11 10:00:00 10.2 3 Oeste 20 Sudoeste 0 912.9 1.1 93
2018-11-11 09:00:00 9.9 9 Sudoeste 42 Sudoeste 0.2 912.7 0.6 91
2018-11-11 08:00:00 10.1 17 Sudoeste 49 Sudoeste 0 912.2 1 85
2018-11-11 07:00:00 10 22 Sudoeste 55 Sudoeste 0 911.8 0 87
2018-11-11 06:00:00 10.5 17 Sudoeste 48 Sudoeste 0.2 912.1 -0.1 83
2018-11-11 05:00:00 10.5 15 Sudoeste 54 Sudoeste 0 911.2 -1.8 76
2018-11-11 04:00:00 10.4 15 Sudoeste 57 Sudoeste 0 911.8 -1.4 76
2018-11-11 03:00:00 10.7 15 Sudoeste 47 Sudoeste 0.2 912.2 -1.2 78
2018-11-11 02:00:00 10.4 10 Sudoeste 29 Sudoeste 0.2 913 -0.9 83
2018-11-11 01:00:00 10.2 12 Sudoeste 30 Oeste 0 913.2 -1.3 84
2018-11-11 00:00:00 9.9 9 Sur 31 Sur 0.2 913.4 -1.2 80
2018-11-10 23:00:00 9.9 5 Norte 21 Sudoeste 0.4 913.9 -0.3 78
2018-11-10 22:00:00 9.7 4 Oeste 16 Oeste 0.2 914.5 0.4 79
2018-11-10 21:00:00 9.7 6 Oeste 37 Oeste 0.4 914.6 0.9 78
2018-11-10 20:00:00 9.5 19 Sudoeste 45 Sudoeste 0.4 914.2 0.8 78
2018-11-10 19:00:00 9.4 17 Oeste 42 Sudoeste 0.4 914.1 0.7 78
2018-11-10 18:00:00 9.8 16 Oeste 43 Sudoeste 0.6 913.7 0.5 80
2018-11-10 17:00:00 10.5 14 Oeste 47 Sudoeste 0.6 913.4 0.7 73
2018-11-10 16:00:00 10.9 20 Oeste 46 Oeste 0.8 913.4 0.9 77
2018-11-10 15:00:00 9.7 19 Oeste 46 Oeste 1 913.2 0.8 92
2018-11-10 14:00:00 9.5 22 Oeste 54 Oeste 0.8 912.7 0.1 90
2018-11-10 13:00:00 10.8 26 Oeste 60 Sudoeste 0.8 912.5 -0.4 88
2018-11-10 12:00:00 12.6 23 Sudoeste 55 Sudoeste 1 912.4 -1.3 78
2018-11-10 11:00:00 11.3 14 Oeste 38 Sudoeste 0.8 912.6 -0.3 80
2018-11-10 10:00:00 10.9 13 Oeste 35 Sudoeste 1 912.9 0.3 79
2018-11-10 09:00:00 8.3 11 Oeste 31 Oeste 1.2 913.7 1.4 87
2018-11-10 08:00:00 8.4 16 Oeste 38 Oeste 1 912.9 1.2 89
2018-11-10 07:00:00 9.5 21 Oeste 53 Sudoeste 1.4 912.6 1.3 87
2018-11-10 06:00:00 10.6 21 Oeste 62 Oeste 1.2 912.3 0.5 93
2018-11-10 05:00:00 11.1 10 Oeste 33 Oeste 0.8 911.7 -1.1 93
2018-11-10 04:00:00 11.8 9 Oeste 32 Sudoeste 0.6 911.3 -1.8 94
2018-11-10 03:00:00 11.8 10 Sudoeste 49 Sudoeste 0.6 911.8 -1.4 92
2018-11-10 02:00:00 11.6 12 Sudoeste 46 Sudoeste 0.4 912.8 -1.6 91
2018-11-10 01:00:00 11.9 17 Sudoeste 51 Sudoeste 0.6 913.1 -2 87
2018-11-10 00:00:00 12 22 Sudoeste 53 Sudoeste 0.4 913.2 -2.4 84
2018-11-09 23:00:00 11.9 15 Sudoeste 51 Sudoeste 0.2 914.4 -1.7 85
2018-11-09 22:00:00 11.8 18 Oeste 45 Sudoeste 0.2 915.1 -1.6 83
2018-11-09 21:00:00 11.3 11 Oeste 42 Sudoeste 0.6 915.6 -1.2 86
2018-11-09 20:00:00 10.5 12 Sudoeste 33 Oeste 0.6 916.1 -1.4 90
2018-11-09 19:00:00 10.2 4 Noroeste 32 Sudoeste 0.6 916.7 -0.9 90
2018-11-09 18:00:00 9.5 8 Sudeste 38 Oeste 0.6 916.8 -1.2 89
2018-11-09 17:00:00 10.7 13 Sudoeste 35 Sudoeste 0.2 917.5 -1.5 84
2018-11-09 16:00:00 10.6 10 Sudoeste 33 Sur 0 917.6 -1.8 79
2018-11-09 15:00:00 8.1 7 Este 29 Este 0.2 918 -2.5 90
2018-11-09 14:00:00 8.1 7 Norte 16 Este 0 919 -1.9 86
2018-11-09 13:00:00 6.8 10 Nordeste 22 Nordeste 0 919.4 -1.8 90
2018-11-09 12:00:00 6.6 10 Este 31 Este 0 920.5 -0.5 88
2018-11-09 11:00:00 6.3 6 Nordeste 17 Este 0 920.9 -0.3 89
2018-11-09 10:00:00 5.5 6 Este 12 Nordeste 0 921.2 0.1 92
2018-11-09 09:00:00 3.7 4 Nordeste 7 Norte 0 921 0.2 93
2018-11-09 08:00:00 3.1 2 Sur 8 Sur 0 921.2 0.7 93
2018-11-09 07:00:00 2.8 0 Calma 12 Oeste 0 921.1 0.6 94
2018-11-09 06:00:00 2.9 3 Noroeste 12 Oeste 0 920.8 0.8 93
2018-11-09 05:00:00 3.7 6 Oeste 21 Sudoeste 0 920.5 1 92
2018-11-09 04:00:00 4.4 9 Oeste 22 Oeste 0.2 920.5 1.1 94
2018-11-09 03:00:00 3.4 8 Oeste 22 Oeste 0 920 1.4 93
2018-11-09 02:00:00 4.3 11 Oeste 22 Oeste 0 919.5 1.5 93
2018-11-09 01:00:00 5 11 Oeste 30 Oeste 0 919.4 2.2 91
2018-11-09 00:00:00 5.2 14 Oeste 34 Oeste 0 918.6 2.1 92